createdAt,value
2023-03-21T00:00:41.734Z,12.90
2023-03-21T00:03:09.285Z,13.00
2023-03-21T00:05:42.196Z,12.90
2023-03-21T00:08:09.862Z,12.90
2023-03-21T00:10:41.101Z,12.90
2023-03-21T00:13:16.200Z,12.90
2023-03-21T00:16:17.446Z,12.90
2023-03-21T00:18:47.484Z,13.00
2023-03-21T00:21:43.930Z,13.00
2023-03-21T00:24:08.171Z,13.00
2023-03-21T00:26:35.895Z,13.00
2023-03-21T00:29:03.386Z,13.00
2023-03-21T00:31:30.698Z,13.00
2023-03-21T00:33:58.151Z,13.00
2023-03-21T00:36:26.243Z,13.00
2023-03-21T00:38:54.607Z,13.00
2023-03-21T00:41:39.281Z,13.00
2023-03-21T00:44:09.107Z,13.00
2023-03-21T00:46:47.035Z,12.90
2023-03-21T00:49:21.027Z,12.90
2023-03-21T00:51:52.053Z,12.80
2023-03-21T00:54:19.846Z,12.80
2023-03-21T00:56:47.282Z,12.80
2023-03-21T00:59:14.656Z,12.80
2023-03-21T01:01:43.448Z,12.70
2023-03-21T01:04:14.708Z,12.70
2023-03-21T01:06:43.429Z,12.70
2023-03-21T01:09:22.718Z,12.70
2023-03-21T01:11:52.378Z,12.80
2023-03-21T01:14:23.379Z,12.70
2023-03-21T01:16:54.642Z,12.70
2023-03-21T01:19:40.983Z,12.70
2023-03-21T01:22:16.383Z,12.80
2023-03-21T01:24:53.931Z,12.80
2023-03-21T01:27:24.346Z,12.80
2023-03-21T01:29:51.968Z,12.80
2023-03-21T01:32:19.682Z,12.80
2023-03-21T01:34:47.116Z,12.80
2023-03-21T01:37:14.860Z,12.80
2023-03-21T01:39:47.234Z,12.80
2023-03-21T01:42:15.192Z,12.80
2023-03-21T01:44:59.861Z,12.80
2023-03-21T01:47:35.998Z,12.80
2023-03-21T01:50:22.399Z,12.80
2023-03-21T01:53:08.725Z,12.80
2023-03-21T01:55:38.601Z,12.80
2023-03-21T01:58:14.287Z,12.80
2023-03-21T02:01:01.026Z,12.80
2023-03-21T02:03:50.554Z,12.80
2023-03-21T02:06:52.622Z,12.80
2023-03-21T02:09:37.361Z,12.80
2023-03-21T02:12:11.268Z,12.80
2023-03-21T02:14:39.466Z,12.80
2023-03-21T02:17:29.869Z,12.80
2023-03-21T02:20:22.303Z,12.80
2023-03-21T02:23:10.574Z,12.80
2023-03-21T02:26:06.766Z,12.80
2023-03-21T02:29:00.352Z,12.80
2023-03-21T02:31:46.337Z,12.80
2023-03-21T02:34:32.667Z,12.80
2023-03-21T02:37:28.942Z,12.70
2023-03-21T02:40:27.971Z,12.70
2023-03-21T02:43:22.532Z,12.70
2023-03-21T02:45:58.583Z,12.70
2023-03-21T02:48:44.403Z,12.60
2023-03-21T02:51:21.384Z,12.60
2023-03-21T02:54:19.978Z,12.60
2023-03-21T02:56:44.623Z,12.60
2023-03-21T02:59:14.816Z,12.60
2023-03-21T03:01:42.472Z,12.60
2023-03-21T03:04:25.014Z,12.60
2023-03-21T03:06:58.662Z,12.60
2023-03-21T03:09:52.748Z,12.60
2023-03-21T03:12:58.278Z,12.60
2023-03-21T03:15:39.556Z,12.60
2023-03-21T03:18:07.003Z,12.60
2023-03-21T03:20:54.986Z,12.60
2023-03-21T03:23:55.892Z,12.50
2023-03-21T03:26:30.902Z,12.50
2023-03-21T03:29:05.313Z,12.50
2023-03-21T03:31:41.960Z,12.50
2023-03-21T03:34:22.405Z,12.50
2023-03-21T03:36:56.422Z,12.50
2023-03-21T03:39:46.360Z,12.50
2023-03-21T03:42:28.792Z,12.40
2023-03-21T03:45:10.009Z,12.40
2023-03-21T03:47:57.408Z,12.40
2023-03-21T03:50:43.165Z,12.40
2023-03-21T03:53:27.174Z,12.40
2023-03-21T03:55:57.456Z,12.40
2023-03-21T03:58:39.539Z,12.40
2023-03-21T04:01:12.913Z,12.40
2023-03-21T04:03:49.782Z,12.40
2023-03-21T04:06:22.340Z,12.40
2023-03-21T04:08:52.225Z,12.40
2023-03-21T04:11:20.569Z,12.40
2023-03-21T04:13:52.281Z,12.40
2023-03-21T04:16:24.380Z,12.50
2023-03-21T04:18:52.689Z,12.50
2023-03-21T04:21:21.783Z,12.50
2023-03-21T04:23:49.280Z,12.60
2023-03-21T04:26:16.735Z,12.60
2023-03-21T04:28:54.507Z,12.60
2023-03-21T04:31:27.460Z,12.50
2023-03-21T04:34:15.056Z,12.50
2023-03-21T04:36:47.929Z,12.50
2023-03-21T04:39:16.920Z,12.50
2023-03-21T04:41:48.243Z,12.50
2023-03-21T04:44:17.377Z,12.50
2023-03-21T04:46:45.550Z,12.50
2023-03-21T04:49:13.706Z,12.50
2023-03-21T04:51:45.417Z,12.50
2023-03-21T04:54:17.925Z,12.50
2023-03-21T04:56:45.347Z,12.50
2023-03-21T04:59:15.781Z,12.50
2023-03-21T05:01:43.973Z,12.60
2023-03-21T05:04:13.586Z,12.60
2023-03-21T05:06:45.149Z,12.60
2023-03-21T05:09:13.142Z,12.60
2023-03-21T05:11:41.405Z,12.60
2023-03-21T05:14:14.341Z,12.60
2023-03-21T05:16:53.690Z,12.60
2023-03-21T05:19:35.717Z,12.60
2023-03-21T05:22:06.103Z,12.60
2023-03-21T05:24:33.642Z,12.60
2023-03-21T05:27:02.637Z,12.60
2023-03-21T05:29:33.826Z,12.50
2023-03-21T05:32:04.404Z,12.50
2023-03-21T05:34:32.316Z,12.50
2023-03-21T05:37:01.134Z,12.50
2023-03-21T05:39:42.578Z,12.50
2023-03-21T05:42:18.708Z,12.50
2023-03-21T05:44:47.501Z,12.40
2023-03-21T05:47:17.178Z,12.40
2023-03-21T05:49:47.446Z,12.40
2023-03-21T05:52:16.077Z,12.40
2023-03-21T05:54:45.506Z,12.40
2023-03-21T05:57:13.370Z,12.40
2023-03-21T05:59:58.978Z,12.40
2023-03-21T06:02:28.156Z,12.40
2023-03-21T06:05:01.390Z,12.50
2023-03-21T06:07:28.797Z,12.60
2023-03-21T06:09:56.416Z,12.70
2023-03-21T06:12:23.798Z,12.80
2023-03-21T06:15:25.431Z,12.90
2023-03-21T06:18:15.496Z,13.00
2023-03-21T06:20:54.848Z,13.10
2023-03-21T06:23:22.283Z,13.20
2023-03-21T06:25:50.310Z,13.30
2023-03-21T06:28:17.834Z,13.40
2023-03-21T06:30:45.455Z,13.40
2023-03-21T06:33:25.681Z,13.60
2023-03-21T06:35:58.374Z,13.70
2023-03-21T06:38:26.900Z,13.80
2023-03-21T06:40:54.860Z,14.00
2023-03-21T06:43:24.325Z,14.10
2023-03-21T06:45:51.658Z,14.20
2023-03-21T06:48:19.101Z,14.30
2023-03-21T06:50:52.183Z,14.40
2023-03-21T06:53:25.243Z,14.50
2023-03-21T06:56:28.034Z,14.70
2023-03-21T06:58:56.929Z,14.80
2023-03-21T07:01:46.546Z,14.90
2023-03-21T07:04:14.228Z,14.80
2023-03-21T07:06:42.639Z,14.90
2023-03-21T07:09:10.270Z,15.00
2023-03-21T07:11:38.676Z,15.10
2023-03-21T07:14:07.009Z,15.20
2023-03-21T07:16:34.485Z,15.30
2023-03-21T07:19:01.846Z,15.30
2023-03-21T07:21:29.229Z,15.30
2023-03-21T07:23:56.683Z,15.40
2023-03-21T07:26:23.926Z,15.50
2023-03-21T07:28:51.255Z,15.60
2023-03-21T07:31:19.701Z,15.70
2023-03-21T07:33:48.845Z,15.70
2023-03-21T07:36:16.819Z,15.70
2023-03-21T07:38:47.214Z,15.60
2023-03-21T07:43:43.518Z,15.60
2023-03-21T07:46:10.977Z,15.70
2023-03-21T07:48:38.301Z,15.80
2023-03-21T07:51:07.214Z,15.80
2023-03-21T07:53:36.354Z,16.00
2023-03-21T07:56:04.266Z,16.10
2023-03-21T07:58:34.327Z,16.00
2023-03-21T08:01:02.473Z,16.10
2023-03-21T08:03:31.202Z,16.20
2023-03-21T08:06:01.390Z,16.30
2023-03-21T08:08:28.859Z,16.30
2023-03-21T08:10:56.805Z,16.30
2023-03-21T08:13:24.890Z,16.30
2023-03-21T08:15:52.222Z,16.30
2023-03-21T08:18:19.579Z,16.30
2023-03-21T08:20:46.975Z,16.10
2023-03-21T08:23:14.327Z,16.20
2023-03-21T08:25:41.618Z,16.20
2023-03-21T08:28:08.902Z,16.30
2023-03-21T08:30:37.864Z,16.30
2023-03-21T08:33:05.222Z,16.20
2023-03-21T08:35:32.488Z,16.40
2023-03-21T08:37:59.790Z,16.50
2023-03-21T08:40:27.386Z,16.50
2023-03-21T08:42:54.818Z,16.40
2023-03-21T08:45:23.057Z,16.50
2023-03-21T08:47:50.985Z,16.60
2023-03-21T08:50:23.503Z,16.60
2023-03-21T08:52:51.335Z,16.70
2023-03-21T08:55:19.956Z,16.50
2023-03-21T08:57:47.389Z,16.60
2023-03-21T09:00:18.531Z,16.70
2023-03-21T09:02:48.644Z,16.70
2023-03-21T09:05:17.112Z,16.80
2023-03-21T09:07:45.544Z,16.90
2023-03-21T09:10:21.052Z,17.10
2023-03-21T09:12:53.345Z,17.10
2023-03-21T09:15:22.278Z,16.90
2023-03-21T09:17:53.123Z,16.70
2023-03-21T09:20:26.415Z,16.80
2023-03-21T09:22:54.413Z,17.00
2023-03-21T09:25:21.776Z,17.20
2023-03-21T09:27:49.384Z,17.30
2023-03-21T09:30:20.858Z,17.00
2023-03-21T09:32:49.709Z,16.60
2023-03-21T09:35:19.044Z,16.60
2023-03-21T09:37:48.484Z,16.80
2023-03-21T09:40:19.844Z,17.10
2023-03-21T09:42:51.572Z,17.00
2023-03-21T09:45:37.279Z,17.10
2023-03-21T09:48:07.909Z,17.10
2023-03-21T09:50:38.917Z,17.30
2023-03-21T09:53:25.597Z,17.20
2023-03-21T09:55:54.710Z,17.20
2023-03-21T09:58:40.592Z,17.50
2023-03-21T10:01:33.214Z,17.40
2023-03-21T10:04:06.113Z,17.70
2023-03-21T10:06:40.732Z,17.80
2023-03-21T10:09:24.764Z,18.00
2023-03-21T10:12:08.538Z,18.00
2023-03-21T10:14:48.580Z,18.40
2023-03-21T10:17:41.355Z,18.70
2023-03-21T10:20:16.153Z,18.60
2023-03-21T10:22:46.198Z,18.70
2023-03-21T10:25:36.577Z,18.80
2023-03-21T10:28:07.410Z,19.00
2023-03-21T10:30:47.348Z,18.70
2023-03-21T10:33:22.254Z,18.30
2023-03-21T10:36:10.721Z,18.20
2023-03-21T10:38:46.062Z,17.80
2023-03-21T10:41:13.472Z,17.60
2023-03-21T10:43:42.172Z,17.70
2023-03-21T10:46:14.228Z,17.70
2023-03-21T10:48:47.234Z,17.90
2023-03-21T10:51:22.633Z,17.90
2023-03-21T10:53:59.238Z,17.80
2023-03-21T10:56:36.251Z,17.90
2023-03-21T10:59:07.213Z,17.90
2023-03-21T11:01:41.858Z,17.40
2023-03-21T11:04:21.254Z,17.30
2023-03-21T11:07:07.674Z,17.70
2023-03-21T11:09:53.505Z,18.20
2023-03-21T11:12:41.173Z,18.20
2023-03-21T11:15:37.930Z,18.30
2023-03-21T11:18:39.930Z,18.00
2023-03-21T11:21:11.350Z,18.10
2023-03-21T11:23:48.340Z,18.20
2023-03-21T11:26:24.441Z,18.40
2023-03-21T11:28:52.276Z,18.70
2023-03-21T11:31:21.077Z,18.80
2023-03-21T11:34:00.120Z,18.60
2023-03-21T11:36:33.962Z,19.20
2023-03-21T11:39:16.057Z,19.60
2023-03-21T11:41:43.628Z,19.40
2023-03-21T11:44:27.394Z,19.20
2023-03-21T11:46:55.689Z,18.60
2023-03-21T11:49:24.367Z,18.50
2023-03-21T11:52:23.769Z,18.70
2023-03-21T11:55:23.766Z,19.00
2023-03-21T11:58:15.136Z,19.10
2023-03-21T12:01:02.126Z,19.20
2023-03-21T12:03:48.275Z,19.30
2023-03-21T12:06:19.398Z,19.60
2023-03-21T12:08:54.669Z,19.80
2023-03-21T12:12:14.184Z,19.70
2023-03-21T12:14:50.436Z,19.20
2023-03-21T12:17:51.454Z,19.20
2023-03-21T12:20:43.259Z,18.80
2023-03-21T12:23:35.211Z,18.60
2023-03-21T12:26:34.938Z,18.60
2023-03-21T12:29:21.086Z,18.40
2023-03-21T12:32:05.714Z,18.30
2023-03-21T12:34:36.046Z,18.20
2023-03-21T12:37:33.686Z,18.30
2023-03-21T12:40:35.716Z,18.70
2023-03-21T12:43:17.526Z,18.30
2023-03-21T12:45:49.241Z,17.90
2023-03-21T12:48:55.289Z,17.80
2023-03-21T12:51:32.674Z,17.90
2023-03-21T12:54:09.201Z,18.10
2023-03-21T12:56:51.294Z,18.40
2023-03-21T12:59:42.925Z,18.20
2023-03-21T13:02:32.375Z,17.70
2023-03-21T13:05:24.182Z,17.60
2023-03-21T13:07:58.596Z,17.70
2023-03-21T13:10:26.041Z,18.00
2023-03-21T13:13:14.702Z,18.30
2023-03-21T13:15:52.648Z,18.40
2023-03-21T13:18:33.327Z,18.20
2023-03-21T13:21:25.977Z,18.10
2023-03-21T13:24:05.429Z,18.00
2023-03-21T13:26:46.248Z,17.90
2023-03-21T13:29:45.484Z,18.00
2023-03-21T13:32:24.870Z,18.10
2023-03-21T13:35:00.517Z,18.20
2023-03-21T13:37:38.949Z,18.20
2023-03-21T13:40:20.540Z,18.40
2023-03-21T13:42:53.850Z,18.30
2023-03-21T13:45:29.782Z,18.30
2023-03-21T13:48:05.866Z,17.90
2023-03-21T13:51:04.514Z,17.90
2023-03-21T13:53:36.880Z,18.30
2023-03-21T13:56:16.379Z,18.70
2023-03-21T13:58:46.776Z,19.00
2023-03-21T14:01:32.423Z,19.30
2023-03-21T14:04:09.945Z,19.00
2023-03-21T14:06:54.343Z,18.70
2023-03-21T14:09:21.852Z,18.30
2023-03-21T14:11:54.654Z,18.00
2023-03-21T14:14:29.638Z,18.00
2023-03-21T14:16:57.084Z,17.90
2023-03-21T14:19:31.543Z,18.00
2023-03-21T14:21:59.422Z,18.00
2023-03-21T14:24:26.945Z,18.10
2023-03-21T14:26:55.174Z,18.30
2023-03-21T14:29:34.700Z,18.30
2023-03-21T14:32:03.522Z,18.00
2023-03-21T14:34:35.030Z,17.70
2023-03-21T14:37:02.607Z,17.70
2023-03-21T14:39:33.647Z,17.80
2023-03-21T14:42:07.333Z,17.80
2023-03-21T14:44:53.407Z,17.90
2023-03-21T14:47:26.430Z,17.90
2023-03-21T14:49:54.392Z,17.60
2023-03-21T14:52:33.087Z,17.80
2023-03-21T14:55:02.737Z,17.80
2023-03-21T14:57:33.367Z,17.70
2023-03-21T15:00:14.756Z,17.60
2023-03-21T15:02:46.156Z,17.70
2023-03-21T15:05:19.213Z,17.80
2023-03-21T15:07:54.941Z,17.80
2023-03-21T15:10:23.505Z,17.80
2023-03-21T15:12:56.418Z,17.70
2023-03-21T15:15:27.570Z,17.50
2023-03-21T15:17:58.748Z,17.20
2023-03-21T15:20:32.170Z,17.00
2023-03-21T15:23:18.315Z,17.00
2023-03-21T15:25:46.120Z,16.90
2023-03-21T15:28:14.938Z,16.80
2023-03-21T15:30:51.445Z,16.80
2023-03-21T15:33:19.897Z,16.90
2023-03-21T15:35:54.280Z,16.70
2023-03-21T15:38:33.312Z,16.70
2023-03-21T15:41:21.789Z,16.60
2023-03-21T15:44:00.870Z,16.50
2023-03-21T15:46:43.461Z,16.40
2023-03-21T15:49:25.561Z,16.40
2023-03-21T15:52:03.265Z,16.30
2023-03-21T15:54:41.591Z,16.30
2023-03-21T15:57:30.255Z,16.30
2023-03-21T16:00:12.138Z,16.40
2023-03-21T16:02:42.155Z,16.30
2023-03-21T16:05:28.669Z,16.30
2023-03-21T16:08:05.371Z,16.20
2023-03-21T16:10:37.304Z,16.20
2023-03-21T16:13:05.319Z,16.10
2023-03-21T16:15:33.444Z,16.10
2023-03-21T16:18:03.781Z,16.10
2023-03-21T16:20:42.819Z,16.20
2023-03-21T16:23:12.413Z,16.10
2023-03-21T16:25:40.775Z,16.10
2023-03-21T16:28:14.654Z,16.10
2023-03-21T16:30:42.013Z,16.10
2023-03-21T16:33:13.422Z,16.00
2023-03-21T16:35:41.484Z,16.00
2023-03-21T16:38:12.579Z,16.00
2023-03-21T16:40:42.635Z,16.00
2023-03-21T16:43:11.297Z,16.00
2023-03-21T16:45:38.726Z,16.00
2023-03-21T16:48:09.094Z,16.00
2023-03-21T16:50:46.957Z,15.90
2023-03-21T16:53:14.246Z,15.90
2023-03-21T16:55:42.204Z,15.90
2023-03-21T16:58:12.084Z,15.90
2023-03-21T17:00:40.511Z,15.90
2023-03-21T17:03:19.495Z,15.90
2023-03-21T17:05:47.317Z,15.90
2023-03-21T17:08:20.149Z,15.90
2023-03-21T17:10:47.531Z,15.90
2023-03-21T17:13:14.869Z,15.90
2023-03-21T17:15:42.356Z,15.90
2023-03-21T17:18:11.447Z,15.90
2023-03-21T17:20:41.721Z,15.80
2023-03-21T17:23:10.474Z,15.80
2023-03-21T17:25:37.862Z,15.70
2023-03-21T17:28:05.341Z,15.70
2023-03-21T17:30:35.691Z,15.70
2023-03-21T17:33:03.154Z,15.70
2023-03-21T17:35:30.574Z,15.70
2023-03-21T17:37:58.696Z,15.70
2023-03-21T17:40:31.460Z,15.70
2023-03-21T17:43:01.169Z,15.70
2023-03-21T17:45:28.623Z,15.60
2023-03-21T17:47:56.063Z,15.60
2023-03-21T17:50:26.088Z,15.50
2023-03-21T17:52:56.668Z,15.40
2023-03-21T17:55:24.613Z,15.30
2023-03-21T17:57:52.892Z,15.20
2023-03-21T18:00:29.773Z,15.10
2023-03-21T18:02:57.621Z,15.10
2023-03-21T18:05:25.656Z,15.00
2023-03-21T18:08:09.644Z,15.00
2023-03-21T18:10:38.710Z,15.00
2023-03-21T18:13:06.337Z,15.00
2023-03-21T18:15:34.819Z,14.90
2023-03-21T18:18:05.235Z,14.90
2023-03-21T18:23:21.781Z,14.80
2023-03-21T18:25:50.059Z,14.80
2023-03-21T18:28:21.318Z,14.80
2023-03-21T18:33:41.050Z,14.80
2023-03-21T18:36:14.083Z,14.70
2023-03-21T18:38:42.504Z,14.70
2023-03-21T18:41:10.468Z,14.70
2023-03-21T18:44:02.952Z,14.70
2023-03-21T18:46:26.692Z,14.70
2023-03-21T18:48:55.283Z,14.70
2023-03-21T18:51:23.311Z,14.60
2023-03-21T18:53:50.731Z,14.60
2023-03-21T18:57:13.146Z,14.60
2023-03-21T18:59:07.722Z,14.50
2023-03-21T19:01:45.478Z,14.60
2023-03-21T19:04:29.374Z,14.50
2023-03-21T19:07:06.302Z,14.50
2023-03-21T19:09:54.752Z,14.40
2023-03-21T19:12:21.393Z,14.40
2023-03-21T19:14:49.139Z,14.40
2023-03-21T19:18:15.369Z,14.30
2023-03-21T19:20:05.924Z,14.30
2023-03-21T19:22:33.529Z,14.30
2023-03-21T19:25:01.157Z,14.20
2023-03-21T19:27:28.608Z,14.20
2023-03-21T19:30:12.748Z,14.20
2023-03-21T19:32:41.463Z,14.30
2023-03-21T19:35:09.858Z,14.40
2023-03-21T19:37:37.916Z,14.40
2023-03-21T19:40:07.246Z,14.50
2023-03-21T19:42:36.473Z,14.50
2023-03-21T19:45:05.745Z,14.50
2023-03-21T19:47:35.736Z,14.50
2023-03-21T19:52:51.577Z,14.40
2023-03-21T19:55:18.922Z,14.30
2023-03-21T19:57:49.353Z,14.20
2023-03-21T20:00:18.609Z,14.20
2023-03-21T20:02:47.328Z,14.10
2023-03-21T20:05:18.040Z,14.00
2023-03-21T20:07:45.689Z,13.90
2023-03-21T20:10:13.154Z,13.90
2023-03-21T20:12:40.706Z,13.90
2023-03-21T20:15:16.972Z,13.90
2023-03-21T20:17:45.269Z,13.90
2023-03-21T20:20:17.677Z,13.80
2023-03-21T20:23:07.948Z,13.80
2023-03-21T20:25:39.278Z,13.80
2023-03-21T20:28:20.121Z,13.80
2023-03-21T20:30:54.771Z,13.80
2023-03-21T20:33:22.498Z,13.90
2023-03-21T20:38:39.608Z,14.00
2023-03-21T20:41:07.606Z,14.00
2023-03-21T20:46:23.486Z,13.90
2023-03-21T20:48:52.741Z,13.90
2023-03-21T20:54:09.165Z,13.80
2023-03-21T20:56:37.158Z,13.80
2023-03-21T20:59:16.738Z,13.80
2023-03-21T21:01:48.474Z,13.70
2023-03-21T21:04:20.169Z,13.70
2023-03-21T21:06:48.603Z,13.70
2023-03-21T21:09:17.074Z,13.70
2023-03-21T21:14:31.807Z,13.60
2023-03-21T21:17:02.588Z,13.70
2023-03-21T21:19:38.405Z,13.60
2023-03-21T21:22:06.006Z,13.60
2023-03-21T21:24:33.311Z,13.60
2023-03-21T21:27:01.446Z,13.60
2023-03-21T21:29:28.878Z,13.50
2023-03-21T21:31:56.461Z,13.50
2023-03-21T21:34:23.893Z,13.40
2023-03-21T21:36:51.385Z,13.40
2023-03-21T21:39:18.762Z,13.30
2023-03-21T21:41:46.453Z,13.30
2023-03-21T21:44:14.097Z,13.30
2023-03-21T21:46:42.567Z,13.40
2023-03-21T21:49:09.917Z,13.40
2023-03-21T21:51:37.377Z,13.30
2023-03-21T21:54:04.949Z,13.20
2023-03-21T21:56:32.315Z,13.20
2023-03-21T21:59:03.283Z,13.10
2023-03-21T22:01:34.927Z,13.10
2023-03-21T22:04:10.959Z,13.00
2023-03-21T22:06:38.551Z,12.90
2023-03-21T22:09:07.151Z,12.90
2023-03-21T22:11:34.722Z,12.90
2023-03-21T22:14:05.256Z,12.90
2023-03-21T22:16:32.745Z,13.00
2023-03-21T22:19:00.244Z,13.00
2023-03-21T22:21:29.126Z,12.90
2023-03-21T22:23:56.474Z,12.90
2023-03-21T22:26:24.231Z,12.90
2023-03-21T22:28:51.751Z,12.80
2023-03-21T22:31:19.296Z,12.70
2023-03-21T22:33:48.812Z,12.70
2023-03-21T22:36:16.163Z,12.60
2023-03-21T22:38:44.087Z,12.70
2023-03-21T22:41:11.669Z,12.60
2023-03-21T22:43:45.570Z,12.60
2023-03-21T22:46:13.103Z,12.60
2023-03-21T22:48:40.500Z,12.70
2023-03-21T22:51:08.288Z,12.70
2023-03-21T22:53:35.690Z,12.70
2023-03-21T22:56:03.020Z,12.60
2023-03-21T22:58:30.702Z,12.60
2023-03-21T23:01:02.264Z,12.50
2023-03-21T23:03:29.627Z,12.50
2023-03-21T23:06:00.673Z,12.50
2023-03-21T23:08:28.239Z,12.40
2023-03-21T23:10:55.576Z,12.40
2023-03-21T23:13:27.078Z,12.30
2023-03-21T23:15:54.620Z,12.30
2023-03-21T23:18:21.898Z,12.40
2023-03-21T23:20:50.085Z,12.40
2023-03-21T23:23:17.582Z,12.40
2023-03-21T23:25:45.389Z,12.40
2023-03-21T23:28:12.760Z,12.40
2023-03-21T23:30:40.539Z,12.30
2023-03-21T23:33:08.038Z,12.30
2023-03-21T23:35:36.527Z,12.20
2023-03-21T23:38:04.720Z,12.30
2023-03-21T23:40:32.234Z,12.20
2023-03-21T23:42:59.888Z,12.20
2023-03-21T23:45:27.271Z,12.10
2023-03-21T23:47:54.726Z,12.10
2023-03-21T23:50:22.287Z,12.10
2023-03-21T23:52:49.745Z,12.10
2023-03-21T23:55:17.172Z,12.00
2023-03-21T23:57:44.533Z,12.00
